KWMC/WMC METAR and TAF weather

Enter ICAO airport designator
Station Type Date Time Source
KWMC METAR 2019/02/22 15:56 UTC NOAA

KWMC 221556Z AUTO 14003KT 10SM CLR M12/M14 A3005 RMK AO2 SLP222 T11171144


Station Type Date Time Source
KWMC Decoded METAR 2019/02/22 15:56 UTC NOAA

WINNEMUCCA MUNICIPAL AIRPORT, NV, United States (KWMC) 40-54N 117-48W 1310M
Feb 22, 2019 - 10:56 AM EST / 2019.02.22 1556 UTC
Wind: from the SE (140 degrees) at 3 MPH (3 KT):0
Visibility: 10 mile(s):0
Sky conditions: clear
Temperature: 10.9 F (-11.7 C)
Dew Point: 6.1 F (-14.4 C)
Relative Humidity: 80%
Pressure (altimeter): 30.05 in. Hg (1017 hPa)
ob: KWMC 221556Z AUTO 14003KT 10SM CLR M12/M14 A3005 RMK AO2 SLP222 T11171144
cycle: 16

Station Type Date Time Source
KWMC TAF 2019/02/22 18:36 UTC NOAA

TAF KWMC 221733Z 2218/2318 18005KT P6SM SKC
FM231400 16006KT P6SM BKN100


Example: see airport list